sensor_id;sensor_type;location;lat;lon;timestamp;pressure;altitude;pressure_sealevel;temperature;humidity
72061;BME280;59925;52.136;5.420;2023-03-20T00:01:18;102106.44;;;7.90;87.73
72061;BME280;59925;52.136;5.420;2023-03-20T00:03:45;102106.88;;;7.87;87.96
72061;BME280;59925;52.136;5.420;2023-03-20T00:06:19;102103.59;;;7.85;88.29
72061;BME280;59925;52.136;5.420;2023-03-20T00:08:47;102109.97;;;7.83;88.18
72061;BME280;59925;52.136;5.420;2023-03-20T00:11:28;102117.19;;;7.83;88.44
72061;BME280;59925;52.136;5.420;2023-03-20T00:13:58;102112.06;;;7.81;88.55
72061;BME280;59925;52.136;5.420;2023-03-20T00:16:29;102118.22;;;7.82;88.65
72061;BME280;59925;52.136;5.420;2023-03-20T00:18:57;102119.44;;;7.86;88.22
72061;BME280;59925;52.136;5.420;2023-03-20T00:21:24;102121.88;;;7.88;88.49
72061;BME280;59925;52.136;5.420;2023-03-20T00:23:52;102115.13;;;7.85;88.15
72061;BME280;59925;52.136;5.420;2023-03-20T00:26:21;102109.19;;;7.83;88.35
72061;BME280;59925;52.136;5.420;2023-03-20T00:28:50;102102.56;;;7.86;88.43
72061;BME280;59925;52.136;5.420;2023-03-20T00:31:24;102102.81;;;7.84;88.20
72061;BME280;59925;52.136;5.420;2023-03-20T00:33:53;102102.38;;;7.87;88.11
72061;BME280;59925;52.136;5.420;2023-03-20T00:36:22;102101.53;;;7.87;88.01
72061;BME280;59925;52.136;5.420;2023-03-20T00:38:49;102088.03;;;7.81;88.29
72061;BME280;59925;52.136;5.420;2023-03-20T00:41:40;102084.31;;;7.82;88.09
72061;BME280;59925;52.136;5.420;2023-03-20T00:45:10;102091.16;;;7.78;88.23
72061;BME280;59925;52.136;5.420;2023-03-20T00:47:18;102103.31;;;7.74;88.46
72061;BME280;59925;52.136;5.420;2023-03-20T00:49:46;102113.75;;;7.76;88.49
72061;BME280;59925;52.136;5.420;2023-03-20T00:52:13;102114.34;;;7.78;88.73
72061;BME280;59925;52.136;5.420;2023-03-20T00:54:41;102118.44;;;7.80;88.41
72061;BME280;59925;52.136;5.420;2023-03-20T00:57:12;102130.75;;;7.81;88.37
72061;BME280;59925;52.136;5.420;2023-03-20T00:59:48;102138.19;;;7.79;88.58
72061;BME280;59925;52.136;5.420;2023-03-20T01:02:16;102152.31;;;7.80;88.56
72061;BME280;59925;52.136;5.420;2023-03-20T01:04:43;102152.69;;;7.83;88.56
72061;BME280;59925;52.136;5.420;2023-03-20T01:07:13;102159.91;;;7.83;88.43
72061;BME280;59925;52.136;5.420;2023-03-20T01:09:39;102152.09;;;7.81;88.20
72061;BME280;59925;52.136;5.420;2023-03-20T01:12:06;102159.69;;;7.85;88.32
72061;BME280;59925;52.136;5.420;2023-03-20T01:14:35;102152.69;;;7.83;88.09
72061;BME280;59925;52.136;5.420;2023-03-20T01:17:02;102130.16;;;7.79;87.89
72061;BME280;59925;52.136;5.420;2023-03-20T01:19:28;102132.44;;;7.76;87.75
72061;BME280;59925;52.136;5.420;2023-03-20T01:21:55;102133.25;;;7.76;87.72
72061;BME280;59925;52.136;5.420;2023-03-20T01:24:21;102156.63;;;7.81;87.57
72061;BME280;59925;52.136;5.420;2023-03-20T01:26:48;102150.50;;;7.80;87.09
72061;BME280;59925;52.136;5.420;2023-03-20T01:29:19;102151.91;;;7.83;86.87
72061;BME280;59925;52.136;5.420;2023-03-20T01:31:47;102143.66;;;7.85;86.86
72061;BME280;59925;52.136;5.420;2023-03-20T01:34:14;102139.81;;;7.80;86.81
72061;BME280;59925;52.136;5.420;2023-03-20T01:36:47;102147.81;;;7.80;86.79
72061;BME280;59925;52.136;5.420;2023-03-20T01:39:15;102148.44;;;7.76;86.38
72061;BME280;59925;52.136;5.420;2023-03-20T01:41:43;102138.22;;;7.73;86.53
72061;BME280;59925;52.136;5.420;2023-03-20T01:44:18;102127.31;;;7.74;86.29
72061;BME280;59925;52.136;5.420;2023-03-20T01:46:44;102139.25;;;7.72;86.30
72061;BME280;59925;52.136;5.420;2023-03-20T01:51:44;102142.13;;;7.70;86.28
72061;BME280;59925;52.136;5.420;2023-03-20T01:54:17;102132.13;;;7.65;86.18
72061;BME280;59925;52.136;5.420;2023-03-20T01:59:24;102130.09;;;7.61;85.68
72061;BME280;59925;52.136;5.420;2023-03-20T02:01:52;102115.34;;;7.58;85.51
72061;BME280;59925;52.136;5.420;2023-03-20T02:04:24;102117.03;;;7.53;85.36
72061;BME280;59925;52.136;5.420;2023-03-20T02:06:51;102122.81;;;7.49;85.60
72061;BME280;59925;52.136;5.420;2023-03-20T02:09:18;102138.19;;;7.47;85.47
72061;BME280;59925;52.136;5.420;2023-03-20T02:11:45;102142.50;;;7.48;85.60
72061;BME280;59925;52.136;5.420;2023-03-20T02:14:12;102121.16;;;7.48;85.55
72061;BME280;59925;52.136;5.420;2023-03-20T02:16:39;102119.28;;;7.49;85.21
72061;BME280;59925;52.136;5.420;2023-03-20T02:19:15;102119.16;;;7.44;85.50
72061;BME280;59925;52.136;5.420;2023-03-20T02:25:05;102126.31;;;7.43;85.66
72061;BME280;59925;52.136;5.420;2023-03-20T02:28:04;102110.31;;;7.43;85.59
72061;BME280;59925;52.136;5.420;2023-03-20T02:33:48;102106.50;;;7.32;85.77
72061;BME280;59925;52.136;5.420;2023-03-20T02:42:33;102108.19;;;7.27;86.32
72061;BME280;59925;52.136;5.420;2023-03-20T02:45:35;102111.66;;;7.27;86.19
72061;BME280;59925;52.136;5.420;2023-03-20T02:51:09;102123.41;;;7.19;86.06
72061;BME280;59925;52.136;5.420;2023-03-20T02:53:45;102107.22;;;7.21;86.13
72061;BME280;59925;52.136;5.420;2023-03-20T02:59:27;102086.50;;;7.16;86.18
72061;BME280;59925;52.136;5.420;2023-03-20T03:02:03;102083.25;;;7.14;86.27
72061;BME280;59925;52.136;5.420;2023-03-20T03:04:35;102078.53;;;7.10;86.17
72061;BME280;59925;52.136;5.420;2023-03-20T03:07:05;102057.44;;;7.08;86.40
72061;BME280;59925;52.136;5.420;2023-03-20T03:10:20;102051.72;;;7.04;86.34
72061;BME280;59925;52.136;5.420;2023-03-20T03:12:30;102047.59;;;7.02;86.43
72061;BME280;59925;52.136;5.420;2023-03-20T03:15:03;102047.03;;;7.00;86.18
72061;BME280;59925;52.136;5.420;2023-03-20T03:17:34;102050.13;;;6.97;86.10
72061;BME280;59925;52.136;5.420;2023-03-20T03:20:07;102050.13;;;6.97;86.17
72061;BME280;59925;52.136;5.420;2023-03-20T03:22:35;102055.44;;;6.97;86.26
72061;BME280;59925;52.136;5.420;2023-03-20T03:25:01;102054.84;;;6.95;86.05
72061;BME280;59925;52.136;5.420;2023-03-20T03:27:34;102066.75;;;6.92;86.25
72061;BME280;59925;52.136;5.420;2023-03-20T03:30:06;102068.00;;;6.89;86.29
72061;BME280;59925;52.136;5.420;2023-03-20T03:32:46;102065.78;;;6.86;86.16
72061;BME280;59925;52.136;5.420;2023-03-20T03:35:19;102060.03;;;6.83;86.29
72061;BME280;59925;52.136;5.420;2023-03-20T03:37:57;102058.84;;;6.79;86.26
72061;BME280;59925;52.136;5.420;2023-03-20T03:40:32;102046.97;;;6.74;86.19
72061;BME280;59925;52.136;5.420;2023-03-20T03:43:07;102046.78;;;6.69;86.05
72061;BME280;59925;52.136;5.420;2023-03-20T03:46:12;102052.75;;;6.65;86.30
72061;BME280;59925;52.136;5.420;2023-03-20T03:48:46;102041.09;;;6.59;86.43
72061;BME280;59925;52.136;5.420;2023-03-20T03:51:17;102050.34;;;6.56;86.51
72061;BME280;59925;52.136;5.420;2023-03-20T03:53:53;102049.50;;;6.56;86.53
72061;BME280;59925;52.136;5.420;2023-03-20T03:56:23;102048.09;;;6.53;86.58
72061;BME280;59925;52.136;5.420;2023-03-20T03:58:54;102040.31;;;6.52;86.71
72061;BME280;59925;52.136;5.420;2023-03-20T04:01:22;102036.44;;;6.48;86.79
72061;BME280;59925;52.136;5.420;2023-03-20T04:03:56;102036.25;;;6.42;86.89
72061;BME280;59925;52.136;5.420;2023-03-20T04:06:26;102023.38;;;6.39;86.65
72061;BME280;59925;52.136;5.420;2023-03-20T04:08:53;102022.75;;;6.37;87.17
72061;BME280;59925;52.136;5.420;2023-03-20T04:11:25;102024.22;;;6.33;86.92
72061;BME280;59925;52.136;5.420;2023-03-20T04:13:54;102025.84;;;6.34;87.34
72061;BME280;59925;52.136;5.420;2023-03-20T04:16:22;102032.81;;;6.35;87.13
72061;BME280;59925;52.136;5.420;2023-03-20T04:18:49;102024.59;;;6.37;87.13
72061;BME280;59925;52.136;5.420;2023-03-20T04:21:16;102021.53;;;6.33;87.17
72061;BME280;59925;52.136;5.420;2023-03-20T04:23:43;102027.47;;;6.35;87.49
72061;BME280;59925;52.136;5.420;2023-03-20T04:26:10;102021.75;;;6.32;87.16
72061;BME280;59925;52.136;5.420;2023-03-20T04:28:36;102015.59;;;6.31;87.46
72061;BME280;59925;52.136;5.420;2023-03-20T04:31:03;102015.41;;;6.33;87.41
72061;BME280;59925;52.136;5.420;2023-03-20T04:33:29;102017.47;;;6.31;87.56
72061;BME280;59925;52.136;5.420;2023-03-20T04:35:56;102017.66;;;6.29;87.46
72061;BME280;59925;52.136;5.420;2023-03-20T04:38:23;102023.22;;;6.27;87.38
72061;BME280;59925;52.136;5.420;2023-03-20T04:40:50;102027.50;;;6.28;87.14
72061;BME280;59925;52.136;5.420;2023-03-20T04:43:17;102030.97;;;6.29;87.34
72061;BME280;59925;52.136;5.420;2023-03-20T04:45:43;102021.38;;;6.28;87.30
72061;BME280;59925;52.136;5.420;2023-03-20T04:48:10;102025.88;;;6.27;87.37
72061;BME280;59925;52.136;5.420;2023-03-20T04:50:37;102029.38;;;6.28;87.38
72061;BME280;59925;52.136;5.420;2023-03-20T04:53:04;102033.88;;;6.27;87.40
72061;BME280;59925;52.136;5.420;2023-03-20T04:55:31;102020.31;;;6.29;87.46
72061;BME280;59925;52.136;5.420;2023-03-20T04:57:57;102031.19;;;6.27;87.38
72061;BME280;59925;52.136;5.420;2023-03-20T05:00:24;102017.28;;;6.25;87.13
72061;BME280;59925;52.136;5.420;2023-03-20T05:02:50;102023.44;;;6.26;87.07
72061;BME280;59925;52.136;5.420;2023-03-20T05:05:17;102018.91;;;6.26;87.55
72061;BME280;59925;52.136;5.420;2023-03-20T05:07:43;102020.97;;;6.24;87.47
72061;BME280;59925;52.136;5.420;2023-03-20T05:10:10;102013.59;;;6.26;87.42
72061;BME280;59925;52.136;5.420;2023-03-20T05:12:36;102011.75;;;6.27;87.23
72061;BME280;59925;52.136;5.420;2023-03-20T05:15:03;102011.16;;;6.25;87.34
72061;BME280;59925;52.136;5.420;2023-03-20T05:17:30;101999.66;;;6.24;87.34
72061;BME280;59925;52.136;5.420;2023-03-20T05:19:56;102006.44;;;6.27;87.50
72061;BME280;59925;52.136;5.420;2023-03-20T05:22:23;102015.22;;;6.27;87.75
72061;BME280;59925;52.136;5.420;2023-03-20T05:24:49;102012.78;;;6.26;87.53
72061;BME280;59925;52.136;5.420;2023-03-20T05:27:16;102012.97;;;6.24;87.42
72061;BME280;59925;52.136;5.420;2023-03-20T05:29:43;102017.28;;;6.25;87.83
72061;BME280;59925;52.136;5.420;2023-03-20T05:32:09;102014.41;;;6.27;87.46
72061;BME280;59925;52.136;5.420;2023-03-20T05:34:38;102009.28;;;6.25;87.60
72061;BME280;59925;52.136;5.420;2023-03-20T05:37:04;102007.44;;;6.26;87.83
72061;BME280;59925;52.136;5.420;2023-03-20T05:39:31;102006.63;;;6.25;87.48
72061;BME280;59925;52.136;5.420;2023-03-20T05:41:57;102009.50;;;6.24;87.77
72061;BME280;59925;52.136;5.420;2023-03-20T05:44:24;102020.97;;;6.24;87.94
72061;BME280;59925;52.136;5.420;2023-03-20T05:46:50;102023.63;;;6.24;87.66
72061;BME280;59925;52.136;5.420;2023-03-20T05:49:17;102024.66;;;6.23;87.63
72061;BME280;59925;52.136;5.420;2023-03-20T05:51:43;102028.16;;;6.24;87.38
72061;BME280;59925;52.136;5.420;2023-03-20T05:54:10;102035.72;;;6.27;87.70
72061;BME280;59925;52.136;5.420;2023-03-20T05:56:37;102041.06;;;6.27;87.67
72061;BME280;59925;52.136;5.420;2023-03-20T05:59:03;102037.34;;;6.28;87.33
72061;BME280;59925;52.136;5.420;2023-03-20T06:01:30;102036.53;;;6.27;87.67
72061;BME280;59925;52.136;5.420;2023-03-20T06:03:56;102039.81;;;6.29;87.76
72061;BME280;59925;52.136;5.420;2023-03-20T06:06:23;102036.91;;;6.31;87.53
72061;BME280;59925;52.136;5.420;2023-03-20T06:08:49;102035.09;;;6.32;87.37
72061;BME280;59925;52.136;5.420;2023-03-20T06:11:16;102031.41;;;6.33;87.54
72061;BME280;59925;52.136;5.420;2023-03-20T06:13:42;102027.72;;;6.34;87.69
72061;BME280;59925;52.136;5.420;2023-03-20T06:16:09;102022.97;;;6.29;87.55
72061;BME280;59925;52.136;5.420;2023-03-20T06:18:36;102027.28;;;6.30;87.58
72061;BME280;59925;52.136;5.420;2023-03-20T06:21:04;102027.28;;;6.30;87.25
72061;BME280;59925;52.136;5.420;2023-03-20T06:23:31;102026.25;;;6.31;87.23
72061;BME280;59925;52.136;5.420;2023-03-20T06:25:57;102025.22;;;6.32;87.48
72061;BME280;59925;52.136;5.420;2023-03-20T06:28:24;102031.16;;;6.34;87.38
72061;BME280;59925;52.136;5.420;2023-03-20T06:30:51;102041.03;;;6.34;87.53
72061;BME280;59925;52.136;5.420;2023-03-20T06:33:18;102043.69;;;6.34;87.35
72061;BME280;59925;52.136;5.420;2023-03-20T06:35:45;102046.94;;;6.36;87.41
72061;BME280;59925;52.136;5.420;2023-03-20T06:38:13;102053.09;;;6.36;87.28
72061;BME280;59925;52.136;5.420;2023-03-20T06:40:40;102048.56;;;6.37;87.24
72061;BME280;59925;52.136;5.420;2023-03-20T06:43:08;102056.16;;;6.40;87.24
72061;BME280;59925;52.136;5.420;2023-03-20T06:45:37;102053.47;;;6.40;87.22
72061;BME280;59925;52.136;5.420;2023-03-20T06:48:07;102052.44;;;6.41;87.44
72061;BME280;59925;52.136;5.420;2023-03-20T06:50:33;102061.06;;;6.43;87.37
72061;BME280;59925;52.136;5.420;2023-03-20T06:53:00;102056.94;;;6.47;87.50
72061;BME280;59925;52.136;5.420;2023-03-20T06:55:27;102061.66;;;6.45;86.88
72061;BME280;59925;52.136;5.420;2023-03-20T06:57:53;102065.13;;;6.46;87.04
72061;BME280;59925;52.136;5.420;2023-03-20T07:00:20;102063.50;;;6.44;87.05
72061;BME280;59925;52.136;5.420;2023-03-20T07:02:47;102063.50;;;6.44;87.55
72061;BME280;59925;52.136;5.420;2023-03-20T07:05:14;102063.50;;;6.44;87.47
72061;BME280;59925;52.136;5.420;2023-03-20T07:07:41;102062.28;;;6.47;87.10
72061;BME280;59925;52.136;5.420;2023-03-20T07:10:08;102059.63;;;6.47;87.21
72061;BME280;59925;52.136;5.420;2023-03-20T07:12:35;102056.13;;;6.47;87.21
72061;BME280;59925;52.136;5.420;2023-03-20T07:15:01;102063.91;;;6.48;87.27
72061;BME280;59925;52.136;5.420;2023-03-20T07:17:28;102068.00;;;6.51;87.28
72061;BME280;59925;52.136;5.420;2023-03-20T07:19:54;102063.09;;;6.48;87.28
72061;BME280;59925;52.136;5.420;2023-03-20T07:22:24;102062.28;;;6.47;87.15
72061;BME280;59925;52.136;5.420;2023-03-20T07:24:51;102060.41;;;6.48;87.01
72061;BME280;59925;52.136;5.420;2023-03-20T07:27:18;102067.16;;;6.50;87.24
72061;BME280;59925;52.136;5.420;2023-03-20T07:29:44;102067.59;;;6.54;87.15
72061;BME280;59925;52.136;5.420;2023-03-20T07:32:11;102066.34;;;6.56;87.14
72061;BME280;59925;52.136;5.420;2023-03-20T07:34:38;102068.78;;;6.58;87.09
72061;BME280;59925;52.136;5.420;2023-03-20T07:37:04;102068.34;;;6.61;86.97
72061;BME280;59925;52.136;5.420;2023-03-20T07:39:31;102070.78;;;6.63;87.15
72061;BME280;59925;52.136;5.420;2023-03-20T07:41:57;102066.91;;;6.65;87.07
72061;BME280;59925;52.136;5.420;2023-03-20T07:44:24;102078.97;;;6.68;86.89
72061;BME280;59925;52.136;5.420;2023-03-20T07:46:51;102075.91;;;6.71;86.82
72061;BME280;59925;52.136;5.420;2023-03-20T07:49:18;102071.59;;;6.70;86.76
72061;BME280;59925;52.136;5.420;2023-03-20T07:51:45;102068.94;;;6.70;86.76
72061;BME280;59925;52.136;5.420;2023-03-20T07:54:12;102071.38;;;6.71;86.49
72061;BME280;59925;52.136;5.420;2023-03-20T07:56:39;102065.25;;;6.71;86.61
72061;BME280;59925;52.136;5.420;2023-03-20T07:59:06;102066.66;;;6.73;86.10
72061;BME280;59925;52.136;5.420;2023-03-20T08:01:32;102068.47;;;6.80;86.15
72061;BME280;59925;52.136;5.420;2023-03-20T08:03:59;102071.09;;;6.86;86.36
72061;BME280;59925;52.136;5.420;2023-03-20T08:06:26;102066.16;;;6.90;86.07
72061;BME280;59925;52.136;5.420;2023-03-20T08:08:52;102062.84;;;6.95;85.87
72061;BME280;59925;52.136;5.420;2023-03-20T08:11:19;102068.13;;;7.01;85.52
72061;BME280;59925;52.136;5.420;2023-03-20T08:13:45;102061.16;;;7.00;84.87
72061;BME280;59925;52.136;5.420;2023-03-20T08:16:12;102068.75;;;7.03;85.07
72061;BME280;59925;52.136;5.420;2023-03-20T08:18:39;102062.97;;;7.07;84.74
72061;BME280;59925;52.136;5.420;2023-03-20T08:21:05;102063.13;;;7.12;84.64
72061;BME280;59925;52.136;5.420;2023-03-20T08:23:32;102060.28;;;7.13;84.42
72061;BME280;59925;52.136;5.420;2023-03-20T08:25:59;102067.00;;;7.16;83.95
72061;BME280;59925;52.136;5.420;2023-03-20T08:28:25;102070.50;;;7.16;82.88
72061;BME280;59925;52.136;5.420;2023-03-20T08:31:12;102070.06;;;7.19;83.41
72061;BME280;59925;52.136;5.420;2023-03-20T08:33:38;102054.44;;;7.23;83.16
72061;BME280;59925;52.136;5.420;2023-03-20T08:36:06;102058.25;;;7.34;83.26
72061;BME280;59925;52.136;5.420;2023-03-20T08:38:33;102064.56;;;7.40;82.50
72061;BME280;59925;52.136;5.420;2023-03-20T08:40:59;102059.19;;;7.46;82.81
72061;BME280;59925;52.136;5.420;2023-03-20T08:43:26;102059.34;;;7.51;82.37
72061;BME280;59925;52.136;5.420;2023-03-20T08:45:52;102061.00;;;7.53;82.01
72061;BME280;59925;52.136;5.420;2023-03-20T08:48:19;102060.09;;;7.59;82.27
72061;BME280;59925;52.136;5.420;2023-03-20T08:50:46;102062.34;;;7.62;81.59
72061;BME280;59925;52.136;5.420;2023-03-20T08:53:12;102060.47;;;7.62;81.79
72061;BME280;59925;52.136;5.420;2023-03-20T08:55:39;102063.09;;;7.69;81.66
72061;BME280;59925;52.136;5.420;2023-03-20T08:58:05;102058.34;;;7.71;81.67
72061;BME280;59925;52.136;5.420;2023-03-20T09:00:32;102060.34;;;7.76;81.01
72061;BME280;59925;52.136;5.420;2023-03-20T09:02:58;102058.28;;;7.78;80.97
72061;BME280;59925;52.136;5.420;2023-03-20T09:05:25;102060.53;;;7.81;81.04
72061;BME280;59925;52.136;5.420;2023-03-20T09:07:51;102062.31;;;7.87;81.46
72061;BME280;59925;52.136;5.420;2023-03-20T09:10:18;102066.16;;;7.91;81.58
72061;BME280;59925;52.136;5.420;2023-03-20T09:12:44;102067.44;;;7.89;81.74
72061;BME280;59925;52.136;5.420;2023-03-20T09:15:11;102069.94;;;7.83;81.70
72061;BME280;59925;52.136;5.420;2023-03-20T09:17:37;102076.16;;;7.77;82.49
72061;BME280;59925;52.136;5.420;2023-03-20T09:20:04;102074.03;;;7.86;82.87
72061;BME280;59925;52.136;5.420;2023-03-20T09:22:32;102072.34;;;7.92;82.99
72061;BME280;59925;52.136;5.420;2023-03-20T09:24:58;102084.19;;;7.96;83.01
72061;BME280;59925;52.136;5.420;2023-03-20T09:27:25;102076.84;;;7.91;83.11
72061;BME280;59925;52.136;5.420;2023-03-20T09:29:51;102077.44;;;7.93;82.94
72061;BME280;59925;52.136;5.420;2023-03-20T09:32:17;102074.47;;;8.02;83.38
72061;BME280;59925;52.136;5.420;2023-03-20T09:34:44;102074.81;;;8.12;83.52
72061;BME280;59925;52.136;5.420;2023-03-20T09:37:11;102074.81;;;8.12;83.20
72061;BME280;59925;52.136;5.420;2023-03-20T09:39:37;102080.78;;;8.07;83.55
72061;BME280;59925;52.136;5.420;2023-03-20T09:42:29;102073.97;;;8.11;83.79
72061;BME280;59925;52.136;5.420;2023-03-20T09:47:49;102075.16;;;8.16;84.35
72061;BME280;59925;52.136;5.420;2023-03-20T09:50:26;102076.94;;;8.22;83.62
72061;BME280;59925;52.136;5.420;2023-03-20T09:53:07;102074.56;;;8.13;83.38
72061;BME280;59925;52.136;5.420;2023-03-20T09:55:38;102068.03;;;8.09;83.36
72061;BME280;59925;52.136;5.420;2023-03-20T09:58:22;102061.50;;;8.05;83.46
72061;BME280;59925;52.136;5.420;2023-03-20T10:00:50;102061.81;;;8.16;83.59
72061;BME280;59925;52.136;5.420;2023-03-20T10:05:46;102052.16;;;8.15;84.02
72061;BME280;59925;52.136;5.420;2023-03-20T10:08:15;102055.88;;;8.32;83.95
72061;BME280;59925;52.136;5.420;2023-03-20T10:16:38;102049.34;;;8.28;83.41
72061;BME280;59925;52.136;5.420;2023-03-20T10:19:31;102062.34;;;8.24;82.84
72061;BME280;59925;52.136;5.420;2023-03-20T10:27:33;102057.78;;;8.25;83.35
72061;BME280;59925;52.136;5.420;2023-03-20T10:35:48;102052.97;;;8.34;83.44
72061;BME280;59925;52.136;5.420;2023-03-20T10:41:24;102048.22;;;8.36;83.29
72061;BME280;59925;52.136;5.420;2023-03-20T10:43:55;102051.69;;;8.36;83.67
72061;BME280;59925;52.136;5.420;2023-03-20T10:46:28;102038.63;;;8.47;84.22
72061;BME280;59925;52.136;5.420;2023-03-20T10:49:12;102044.78;;;8.47;83.97
72061;BME280;59925;52.136;5.420;2023-03-20T10:51:46;102050.22;;;8.40;83.75
72061;BME280;59925;52.136;5.420;2023-03-20T10:56:57;102054.59;;;8.35;83.63
72061;BME280;59925;52.136;5.420;2023-03-20T10:59:33;102039.25;;;8.30;82.94
72061;BME280;59925;52.136;5.420;2023-03-20T11:02:14;102041.09;;;8.29;83.00
72061;BME280;59925;52.136;5.420;2023-03-20T11:04:40;102038.22;;;8.31;83.76
72061;BME280;59925;52.136;5.420;2023-03-20T11:12:42;102038.03;;;8.44;84.80
72061;BME280;59925;52.136;5.420;2023-03-20T11:15:32;102037.66;;;8.41;84.00
72061;BME280;59925;52.136;5.420;2023-03-20T11:18:01;102049.03;;;8.36;84.47
72061;BME280;59925;52.136;5.420;2023-03-20T11:20:44;102048.06;;;8.31;85.06
72061;BME280;59925;52.136;5.420;2023-03-20T11:23:15;102031.66;;;8.27;85.41
72061;BME280;59925;52.136;5.420;2023-03-20T11:25:50;102037.25;;;8.25;85.50
72061;BME280;59925;52.136;5.420;2023-03-20T11:28:19;102029.25;;;8.25;85.57
72061;BME280;59925;52.136;5.420;2023-03-20T11:30:47;102028.41;;;8.25;85.94
72061;BME280;59925;52.136;5.420;2023-03-20T11:33:29;102019.28;;;8.33;86.23
72061;BME280;59925;52.136;5.420;2023-03-20T11:35:57;102023.91;;;8.25;85.89
72061;BME280;59925;52.136;5.420;2023-03-20T11:38:24;102011.84;;;8.35;86.36
72061;BME280;59925;52.136;5.420;2023-03-20T11:40:51;102010.13;;;8.40;86.32
72061;BME280;59925;52.136;5.420;2023-03-20T11:43:21;102006.06;;;8.38;85.82
72061;BME280;59925;52.136;5.420;2023-03-20T11:45:53;102008.50;;;8.39;86.03
72061;BME280;59925;52.136;5.420;2023-03-20T11:48:25;102008.84;;;8.43;85.99
72061;BME280;59925;52.136;5.420;2023-03-20T11:51:06;101997.56;;;8.41;86.13
72061;BME280;59925;52.136;5.420;2023-03-20T11:56:21;101999.59;;;8.46;85.96
72061;BME280;59925;52.136;5.420;2023-03-20T11:59:14;101997.91;;;8.51;86.00
72061;BME280;59925;52.136;5.420;2023-03-20T12:01:48;101993.34;;;8.52;85.70
72061;BME280;59925;52.136;5.420;2023-03-20T12:06:51;101993.31;;;8.70;86.59
72061;BME280;59925;52.136;5.420;2023-03-20T12:23:10;101989.84;;;8.82;86.58
72061;BME280;59925;52.136;5.420;2023-03-20T12:31:04;101998.28;;;8.67;86.48
72061;BME280;59925;52.136;5.420;2023-03-20T12:33:57;102002.66;;;8.61;86.86
72061;BME280;59925;52.136;5.420;2023-03-20T12:36:47;101997.41;;;8.54;86.93
72061;BME280;59925;52.136;5.420;2023-03-20T12:39:17;101985.41;;;8.45;87.71
72061;BME280;59925;52.136;5.420;2023-03-20T12:53:25;101975.53;;;8.88;89.61
72061;BME280;59925;52.136;5.420;2023-03-20T13:01:30;101971.69;;;8.72;89.48
72061;BME280;59925;52.136;5.420;2023-03-20T13:12:19;101956.53;;;8.54;90.28
72061;BME280;59925;52.136;5.420;2023-03-20T13:15:10;101964.53;;;8.54;90.32
72061;BME280;59925;52.136;5.420;2023-03-20T13:17:51;101962.13;;;8.52;90.52
72061;BME280;59925;52.136;5.420;2023-03-20T13:20:30;101954.09;;;8.52;90.61
72061;BME280;59925;52.136;5.420;2023-03-20T13:23:29;101954.44;;;8.56;91.00
72061;BME280;59925;52.136;5.420;2023-03-20T13:26:21;101948.97;;;8.51;91.07
72061;BME280;59925;52.136;5.420;2023-03-20T13:29:11;101951.78;;;8.56;91.54
72061;BME280;59925;52.136;5.420;2023-03-20T13:31:48;101948.97;;;8.51;91.23
72061;BME280;59925;52.136;5.420;2023-03-20T13:37:43;101945.47;;;8.50;91.72
72061;BME280;59925;52.136;5.420;2023-03-20T13:40:18;101947.38;;;8.62;92.08
72061;BME280;59925;52.136;5.420;2023-03-20T13:42:55;101943.16;;;8.54;91.64
72061;BME280;59925;52.136;5.420;2023-03-20T13:45:35;101939.91;;;8.52;91.96
72061;BME280;59925;52.136;5.420;2023-03-20T13:50:50;101937.88;;;8.47;92.18
72061;BME280;59925;52.136;5.420;2023-03-20T13:53:28;101931.75;;;8.47;92.25
72061;BME280;59925;52.136;5.420;2023-03-20T13:56:07;101937.69;;;8.49;92.22
72061;BME280;59925;52.136;5.420;2023-03-20T13:59:11;101933.50;;;8.53;92.53
72061;BME280;59925;52.136;5.420;2023-03-20T14:01:54;101929.69;;;8.61;92.66
72061;BME280;59925;52.136;5.420;2023-03-20T14:04:25;101937.38;;;8.69;92.74
72061;BME280;59925;52.136;5.420;2023-03-20T14:06:54;101938.91;;;8.65;92.43
72061;BME280;59925;52.136;5.420;2023-03-20T14:09:32;101934.94;;;8.67;92.14
72061;BME280;59925;52.136;5.420;2023-03-20T14:12:02;101937.63;;;8.67;92.09
72061;BME280;59925;52.136;5.420;2023-03-20T14:14:31;101934.69;;;8.69;92.26
72061;BME280;59925;52.136;5.420;2023-03-20T14:17:06;101938.66;;;8.66;92.20
72061;BME280;59925;52.136;5.420;2023-03-20T14:19:35;101931.56;;;8.72;92.36
72061;BME280;59925;52.136;5.420;2023-03-20T14:22:03;101934.59;;;8.76;92.34
72061;BME280;59925;52.136;5.420;2023-03-20T14:24:37;101937.03;;;8.65;91.98
72061;BME280;59925;52.136;5.420;2023-03-20T14:27:05;101937.03;;;8.65;92.01
72061;BME280;59925;52.136;5.420;2023-03-20T14:29:35;101925.63;;;8.58;92.22
72061;BME280;59925;52.136;5.420;2023-03-20T14:34:46;101928.16;;;8.53;92.20
72061;BME280;59925;52.136;5.420;2023-03-20T14:40:32;101932.41;;;8.42;92.13
72061;BME280;59925;52.136;5.420;2023-03-20T14:43:04;101927.53;;;8.39;92.27
72061;BME280;59925;52.136;5.420;2023-03-20T14:45:40;101925.50;;;8.34;92.47
72061;BME280;59925;52.136;5.420;2023-03-20T14:48:25;101926.34;;;8.35;92.28
72061;BME280;59925;52.136;5.420;2023-03-20T14:51:19;101928.06;;;8.29;92.60
72061;BME280;59925;52.136;5.420;2023-03-20T14:54:22;101927.38;;;8.34;93.00
72061;BME280;59925;52.136;5.420;2023-03-20T14:56:44;101929.34;;;8.26;93.47
72061;BME280;59925;52.136;5.420;2023-03-20T14:59:11;101920.94;;;8.23;93.82
72061;BME280;59925;52.136;5.420;2023-03-20T15:01:57;101927.72;;;8.25;94.01
72061;BME280;59925;52.136;5.420;2023-03-20T15:09:29;101927.25;;;8.28;94.68
72061;BME280;59925;52.136;5.420;2023-03-20T15:11:57;101926.28;;;8.23;94.50
72061;BME280;59925;52.136;5.420;2023-03-20T15:14:33;101922.66;;;8.17;94.82
72061;BME280;59925;52.136;5.420;2023-03-20T15:17:02;101913.03;;;8.16;95.22
72061;BME280;59925;52.136;5.420;2023-03-20T15:19:29;101915.69;;;8.16;95.52
72061;BME280;59925;52.136;5.420;2023-03-20T15:21:57;101917.56;;;8.16;95.68
72061;BME280;59925;52.136;5.420;2023-03-20T15:24:28;101914.31;;;8.13;96.07